Time;durP1;ratioP1;P1;durP2;ratioP2;P2;SDS_P1;SDS_P2;PMS_P1;PMS_P2;Temp;Humidity;BMP_temperature;BMP_pressure;BME280_temperature;BME280_humidity;BME280_pressure;Samples;Min_cycle;Max_cycle;Signal;HPM_P1;HPM_P2
2022/10/12 00:02:24;;;;;;;;;5.75;5.00;;;;;14.76;47.56;101729.34;5092508;27;55009;-40
2022/10/12 00:04:49;;;;;;;;;7.00;6.00;;;;;14.75;47.42;101726.75;5096858;27;47775;-41
2022/10/12 00:07:15;;;;;;;;;10.75;6.50;;;;;14.73;47.61;101728.59;5095135;27;45439;-40
2022/10/12 00:09:40;;;;;;;;;6.50;6.50;;;;;14.71;47.91;101733.03;5079017;27;45447;-40
2022/10/12 00:12:06;;;;;;;;;9.00;6.25;;;;;14.71;47.52;101738.31;5058009;27;45854;-40
2022/10/12 00:14:35;;;;;;;;;7.50;5.50;;;;;14.70;47.87;101731.31;5097493;27;51352;-40
2022/10/12 00:17:00;;;;;;;;;10.25;7.00;;;;;14.71;47.87;101733.88;5085458;27;45786;-40
2022/10/12 00:19:25;;;;;;;;;7.25;5.00;;;;;14.71;47.69;101727.75;5077268;27;62423;-40
2022/10/12 00:21:51;;;;;;;;;7.00;6.25;;;;;14.71;47.87;101730.41;5090293;27;45460;-40
2022/10/12 00:24:16;;;;;;;;;7.00;6.50;;;;;14.69;47.86;101730.44;5090371;27;46206;-40
2022/10/12 00:26:41;;;;;;;;;8.75;6.00;;;;;14.65;47.63;101730.59;5094960;27;45649;-40
2022/10/12 00:29:08;;;;;;;;;8.00;6.50;;;;;14.65;48.11;101733.22;5081135;27;45407;-39
2022/10/12 00:31:33;;;;;;;;;8.25;7.00;;;;;14.63;47.83;101732.41;5093139;27;56793;-40
2022/10/12 00:34:02;;;;;;;;;7.50;7.00;;;;;14.61;47.80;101732.44;5080564;27;45380;-40
2022/10/12 00:36:31;;;;;;;;;8.25;6.75;;;;;14.61;47.97;101732.44;5069474;27;45469;-40
2022/10/12 00:38:57;;;;;;;;;9.50;7.75;;;;;14.62;48.06;101734.16;5097865;27;45209;-40
2022/10/12 00:41:26;;;;;;;;;11.75;6.00;;;;;14.61;48.09;101729.81;5094831;27;45387;-40
2022/10/12 00:43:52;;;;;;;;;8.50;6.50;;;;;14.62;47.78;101728.88;5092600;27;45481;-40
2022/10/12 00:46:37;;;;;;;;;10.75;8.00;;;;;14.63;47.91;101727.13;5096769;27;45843;-40
2022/10/12 00:49:21;;;;;;;;;9.75;6.25;;;;;14.62;48.16;101734.16;5078096;27;45555;-40
2022/10/12 00:51:54;;;;;;;;;9.25;7.00;;;;;14.63;47.79;101730.63;5072383;27;47098;-40
2022/10/12 00:54:24;;;;;;;;;8.25;7.50;;;;;14.60;48.08;101725.44;5095944;27;46895;-39
2022/10/12 00:56:52;;;;;;;;;10.25;8.00;;;;;14.58;47.95;101727.25;5070120;27;45530;-41
2022/10/12 00:59:25;;;;;;;;;7.50;7.00;;;;;14.56;48.35;101729.91;5091277;27;45396;-43
2022/10/12 01:01:50;;;;;;;;;10.00;7.75;;;;;14.57;47.91;101730.75;5093309;27;45371;-39
2022/10/12 01:04:16;;;;;;;;;4.25;4.25;;;;;14.56;48.13;101731.66;5083091;27;45365;-39
2022/10/12 01:06:41;;;;;;;;;10.25;7.75;;;;;14.54;47.93;101736.13;5067783;27;45278;-39
2022/10/12 01:09:07;;;;;;;;;8.25;7.00;;;;;14.54;48.43;101726.44;5091442;27;61972;-40
2022/10/12 01:11:32;;;;;;;;;8.25;8.25;;;;;14.54;48.18;101731.72;5092440;27;50697;-40
2022/10/12 01:13:58;;;;;;;;;10.25;7.50;;;;;14.55;48.38;101725.50;5094198;27;46014;-39
2022/10/12 01:16:35;;;;;;;;;11.50;7.00;;;;;14.54;48.34;101726.44;5077742;27;66650;-40
2022/10/12 01:19:06;;;;;;;;;8.50;6.75;;;;;14.51;48.05;101718.63;5093310;27;45610;-40
2022/10/12 01:21:37;;;;;;;;;13.25;9.25;;;;;14.48;48.14;101721.31;5097056;27;45166;-40
2022/10/12 01:24:33;;;;;;;;;13.50;7.00;;;;;14.42;48.37;101711.81;5099708;27;45457;-40
2022/10/12 01:27:40;;;;;;;;;7.50;6.25;;;;;14.38;48.05;101720.72;5089428;27;45326;-40
2022/10/12 01:30:07;;;;;;;;;10.50;7.00;;;;;14.33;48.27;101719.13;5089004;27;47290;-39
2022/10/12 01:32:35;;;;;;;;;9.00;7.25;;;;;14.30;48.42;101709.53;5072903;27;45288;-40
2022/10/12 01:35:07;;;;;;;;;7.25;7.00;;;;;14.27;48.34;101716.66;5096651;27;46203;-40
2022/10/12 01:37:44;;;;;;;;;9.25;7.25;;;;;14.24;48.77;101709.72;5076849;27;45376;-41
2022/10/12 01:40:16;;;;;;;;;7.00;6.25;;;;;14.23;48.43;101713.22;5089156;27;45362;-39
2022/10/12 01:42:42;;;;;;;;;12.00;9.00;;;;;14.22;48.52;101714.16;5093252;27;45531;-40
2022/10/12 01:45:13;;;;;;;;;11.75;10.00;;;;;14.19;48.74;101709.81;5091646;27;62515;-39
2022/10/12 01:47:40;;;;;;;;;10.00;7.75;;;;;14.18;48.99;101716.00;5082483;27;45377;-40
2022/10/12 01:50:09;;;;;;;;;12.00;8.50;;;;;14.19;48.46;101716.84;5082800;27;45695;-39
2022/10/12 01:52:49;;;;;;;;;11.00;7.00;;;;;14.15;49.06;101705.53;5081147;27;45181;-39
2022/10/12 01:55:25;;;;;;;;;8.00;6.00;;;;;14.11;48.74;101711.81;5093541;27;45451;-40
2022/10/12 01:58:12;;;;;;;;;7.00;7.00;;;;;14.10;49.23;101717.09;5078672;27;45597;-40
2022/10/12 02:00:58;;;;;;;;;8.25;7.50;;;;;14.07;48.49;101704.03;5098029;27;45370;-40
2022/10/12 02:03:41;;;;;;;;;12.25;7.00;;;;;14.05;48.86;101714.59;5082951;27;47186;-39
2022/10/12 02:06:13;;;;;;;;;8.25;6.00;;;;;14.00;49.09;101708.56;5088553;27;46215;-39
2022/10/12 02:08:47;;;;;;;;;9.75;6.50;;;;;14.00;49.01;101703.31;5076471;27;45490;-39
2022/10/12 02:11:15;;;;;;;;;9.75;8.75;;;;;13.98;49.01;101700.72;5100817;27;45448;-39
2022/10/12 02:13:47;;;;;;;;;8.50;7.75;;;;;13.99;48.84;101709.50;5070077;27;45471;-40
2022/10/12 02:16:19;;;;;;;;;9.25;6.75;;;;;13.95;49.03;101705.19;5083152;27;46017;-39
2022/10/12 02:18:47;;;;;;;;;13.00;8.25;;;;;13.90;49.46;101707.06;5098516;27;45344;-39
2022/10/12 02:21:18;;;;;;;;;9.75;4.25;;;;;13.84;49.00;101698.44;5083174;27;45382;-40
2022/10/12 02:23:44;;;;;;;;;10.00;6.75;;;;;13.83;49.51;101706.38;5101388;27;45275;-40
2022/10/12 02:26:10;;;;;;;;;9.50;5.50;;;;;13.76;49.19;101695.13;5081769;27;46958;-39
2022/10/12 02:28:36;;;;;;;;;8.00;5.75;;;;;13.73;49.26;101691.72;5100219;27;45458;-39
2022/10/12 02:31:18;;;;;;;;;8.25;4.25;;;;;13.69;49.73;101690.94;5072471;27;45441;-39
2022/10/12 02:33:50;;;;;;;;;10.50;7.50;;;;;13.66;49.54;101683.97;5072712;27;45540;-39
2022/10/12 02:36:24;;;;;;;;;11.00;6.25;;;;;13.63;49.69;101683.19;5081136;27;45378;-39
2022/10/12 02:39:01;;;;;;;;;7.50;4.25;;;;;13.57;49.74;101680.72;5099369;27;45829;-40
2022/10/12 02:41:34;;;;;;;;;7.75;7.00;;;;;13.57;49.49;101680.72;5097455;27;45545;-39
2022/10/12 02:44:02;;;;;;;;;10.50;5.75;;;;;13.58;49.63;101680.69;5054975;28;45612;-39
2022/10/12 02:46:29;;;;;;;;;11.25;7.25;;;;;13.57;49.64;101673.69;5097663;27;47546;-39
2022/10/12 02:48:57;;;;;;;;;9.75;7.50;;;;;13.57;49.86;101668.41;5083024;27;45739;-39
2022/10/12 02:51:23;;;;;;;;;8.50;7.00;;;;;13.58;49.80;101667.53;5059403;28;45372;-39
2022/10/12 02:53:49;;;;;;;;;8.25;6.00;;;;;13.61;50.19;101670.06;5066558;27;68380;-40
2022/10/12 02:56:15;;;;;;;;;9.75;5.25;;;;;13.63;50.12;101668.28;5079562;27;54536;-39
2022/10/12 02:58:42;;;;;;;;;11.25;9.00;;;;;13.65;49.62;101674.38;5086835;27;45481;-39
2022/10/12 03:01:07;;;;;;;;;9.25;8.25;;;;;13.67;50.19;101667.28;5079133;28;45488;-39
2022/10/12 03:03:33;;;;;;;;;11.50;9.00;;;;;13.68;50.23;101668.16;5091507;27;58955;-40
2022/10/12 03:05:58;;;;;;;;;12.50;8.75;;;;;13.66;49.85;101668.19;5067463;28;70207;-40
2022/10/12 03:08:23;;;;;;;;;11.50;8.75;;;;;13.63;50.30;101663.03;5092329;27;65756;-40
2022/10/12 03:10:49;;;;;;;;;8.25;6.00;;;;;13.62;50.23;101661.28;5099366;27;59515;-40
2022/10/12 03:13:14;;;;;;;;;7.75;6.75;;;;;13.62;49.86;101666.53;5092526;27;61501;-40
2022/10/12 03:15:39;;;;;;;;;8.50;6.75;;;;;13.60;49.94;101664.88;5100351;27;69720;-41
2022/10/12 03:18:05;;;;;;;;;7.50;6.75;;;;;13.59;50.43;101660.50;5095858;27;65038;-41
2022/10/12 03:20:30;;;;;;;;;8.00;7.25;;;;;13.56;50.15;101656.16;5099214;27;56244;-40
2022/10/12 03:22:55;;;;;;;;;7.50;6.50;;;;;13.59;50.02;101665.75;5077223;27;47252;-40
2022/10/12 03:25:21;;;;;;;;;9.00;7.50;;;;;13.59;49.88;101665.75;5065453;28;47255;-40
2022/10/12 03:27:46;;;;;;;;;6.75;6.00;;;;;13.59;49.98;101660.50;5096634;27;61270;-41
2022/10/12 03:30:12;;;;;;;;;8.25;6.25;;;;;13.56;50.31;101656.16;5092359;27;49250;-40
2022/10/12 03:32:38;;;;;;;;;10.75;7.00;;;;;13.59;50.43;101660.50;5100014;27;45651;-40
2022/10/12 03:35:04;;;;;;;;;7.25;6.00;;;;;13.59;50.34;101655.22;5095599;27;46240;-40
2022/10/12 03:37:29;;;;;;;;;11.75;7.50;;;;;13.59;50.37;101663.13;5079432;27;45466;-40
2022/10/12 03:39:55;;;;;;;;;10.00;5.25;;;;;13.57;49.91;101657.03;5088680;27;48787;-40
2022/10/12 03:42:20;;;;;;;;;7.50;6.50;;;;;13.58;49.94;101664.00;5084160;27;60261;-40
2022/10/12 03:44:45;;;;;;;;;11.25;6.75;;;;;13.59;50.46;101658.72;5090834;27;57643;-40
2022/10/12 03:47:11;;;;;;;;;7.00;6.75;;;;;13.58;50.58;101657.00;5085424;27;45438;-41
2022/10/12 03:49:36;;;;;;;;;10.25;7.00;;;;;13.55;50.16;101657.06;5096105;27;45441;-40
2022/10/12 03:52:02;;;;;;;;;8.75;7.25;;;;;13.54;50.64;101665.00;5099940;27;45444;-40
2022/10/12 03:54:27;;;;;;;;;6.75;6.75;;;;;13.52;50.77;101659.78;5099251;27;45302;-40
2022/10/12 03:56:52;;;;;;;;;8.50;6.25;;;;;13.53;50.46;101663.25;5091972;27;45691;-40
2022/10/12 03:59:18;;;;;;;;;10.75;7.00;;;;;13.50;50.74;101666.00;5096683;27;58793;-41
2022/10/12 04:01:43;;;;;;;;;9.00;7.25;;;;;13.48;50.64;101666.88;5081297;27;67211;-40
2022/10/12 04:04:09;;;;;;;;;10.25;6.00;;;;;13.49;50.54;101659.84;5088943;27;65929;-41
2022/10/12 04:06:35;;;;;;;;;10.75;8.00;;;;;13.52;50.35;101661.53;5100058;27;45299;-40
2022/10/12 04:09:00;;;;;;;;;8.25;7.00;;;;;13.52;50.68;101661.53;5097417;27;45355;-40
2022/10/12 04:11:25;;;;;;;;;7.50;5.00;;;;;13.52;50.56;101662.41;5096230;27;45451;-41
2022/10/12 04:13:51;;;;;;;;;10.00;7.00;;;;;13.49;50.97;101659.84;5094078;27;46119;-40
2022/10/12 04:16:16;;;;;;;;;9.00;7.00;;;;;13.47;50.54;101666.91;5076536;27;46955;-40
2022/10/12 04:18:42;;;;;;;;;19.75;15.25;;;;;13.47;50.74;101665.16;5087543;27;45381;-41
2022/10/12 04:21:10;;;;;;;;;22.50;16.75;;;;;13.43;50.97;101666.13;5096861;27;45430;-41
2022/10/12 04:23:36;;;;;;;;;10.50;9.75;;;;;13.41;51.11;101665.28;5059607;28;47010;-39
2022/10/12 04:26:01;;;;;;;;;8.50;6.00;;;;;13.38;50.85;101669.75;5093918;27;61765;-40
2022/10/12 04:28:26;;;;;;;;;10.25;8.00;;;;;13.35;50.83;101675.97;5090071;27;45795;-40
2022/10/12 04:30:52;;;;;;;;;9.50;6.25;;;;;13.34;51.06;101671.59;5097884;27;45488;-40
2022/10/12 04:33:17;;;;;;;;;8.00;8.00;;;;;13.32;50.96;101675.19;5091149;27;47120;-40
2022/10/12 04:35:43;;;;;;;;;8.75;7.00;;;;;13.26;51.48;101671.75;5095846;27;50131;-40
2022/10/12 04:38:08;;;;;;;;;11.00;9.00;;;;;13.26;51.28;101682.28;5095813;27;45454;-41
2022/10/12 04:40:33;;;;;;;;;13.00;9.00;;;;;13.27;51.32;101676.09;5097149;27;45142;-40
2022/10/12 04:42:59;;;;;;;;;11.25;8.50;;;;;13.28;51.08;101682.25;5099857;27;57807;-40
2022/10/12 04:45:24;;;;;;;;;11.00;8.25;;;;;13.28;51.09;101675.22;5090216;27;61707;-41
2022/10/12 04:47:49;;;;;;;;;12.25;8.75;;;;;13.29;51.31;101674.28;5100033;27;45149;-40
2022/10/12 04:50:15;;;;;;;;;13.25;6.50;;;;;13.30;51.34;101677.81;5087360;27;45549;-40
2022/10/12 04:52:40;;;;;;;;;8.00;6.50;;;;;13.30;51.35;101672.56;5085582;27;45459;-40
2022/10/12 04:55:06;;;;;;;;;11.00;7.75;;;;;13.28;51.17;101672.59;5098308;27;45266;-40
2022/10/12 04:57:32;;;;;;;;;11.00;8.00;;;;;13.30;51.43;101675.19;5097342;27;45461;-40
2022/10/12 04:59:57;;;;;;;;;7.75;7.25;;;;;13.29;50.88;101666.41;5078414;27;45535;-40
2022/10/12 05:02:22;;;;;;;;;8.75;7.00;;;;;13.28;51.21;101664.69;5096294;27;47143;-40
2022/10/12 05:04:48;;;;;;;;;7.75;7.50;;;;;13.26;51.30;101669.13;5099719;27;45480;-41
2022/10/12 05:07:13;;;;;;;;;7.50;7.50;;;;;13.22;51.50;101674.47;5097145;27;45519;-40
2022/10/12 05:09:38;;;;;;;;;8.25;7.25;;;;;13.19;51.07;101658.78;5099725;27;45451;-40
2022/10/12 05:12:04;;;;;;;;;11.25;7.00;;;;;13.16;51.12;101666.75;5099586;27;50264;-40
2022/10/12 05:14:29;;;;;;;;;12.00;9.50;;;;;13.13;51.57;101657.16;5093927;27;45494;-40
2022/10/12 05:16:55;;;;;;;;;11.50;8.25;;;;;13.13;51.19;101662.41;5061401;27;45464;-40
2022/10/12 05:19:20;;;;;;;;;10.75;7.50;;;;;13.10;51.54;101663.34;5099163;27;45473;-39
2022/10/12 05:21:46;;;;;;;;;15.00;8.50;;;;;13.07;51.99;101663.41;5099526;27;45516;-40
2022/10/12 05:24:11;;;;;;;;;9.25;8.75;;;;;13.06;51.50;101660.81;5095282;27;55477;-39
2022/10/12 05:26:36;;;;;;;;;13.50;9.00;;;;;13.02;51.83;101667.06;5103355;27;45299;-40
2022/10/12 05:29:02;;;;;;;;;11.75;8.75;;;;;12.99;51.86;101670.59;5098041;27;57358;-39
2022/10/12 05:31:27;;;;;;;;;12.25;8.00;;;;;13.00;51.95;101676.75;5088075;27;46226;-40
2022/10/12 05:33:52;;;;;;;;;11.50;10.50;;;;;12.98;51.74;101671.50;5083925;27;48353;-40
2022/10/12 05:36:18;;;;;;;;;15.00;11.50;;;;;12.98;51.60;101674.16;5079713;28;45430;-40
2022/10/12 05:38:43;;;;;;;;;17.75;10.25;;;;;12.96;51.76;101673.31;5093282;27;63259;-40
2022/10/12 05:41:09;;;;;;;;;12.00;10.00;;;;;12.99;52.00;101677.63;5097362;27;46304;-40
2022/10/12 05:43:34;;;;;;;;;15.00;10.25;;;;;12.99;51.76;101678.47;5096858;27;45302;-39
2022/10/12 05:46:00;;;;;;;;;12.00;9.75;;;;;12.98;51.94;101673.25;5099547;27;45221;-39
2022/10/12 05:48:25;;;;;;;;;12.25;7.00;;;;;12.98;52.15;101665.38;5092357;27;45579;-39
2022/10/12 05:50:52;;;;;;;;;19.75;12.00;;;;;12.99;52.04;101673.22;5102952;27;46427;-39
2022/10/12 05:53:17;;;;;;;;;12.25;10.00;;;;;12.98;52.24;101662.75;5097934;27;45849;-41
2022/10/12 05:55:59;;;;;;;;;13.00;10.00;;;;;12.97;52.02;101666.28;5101947;27;62702;-39
2022/10/12 05:58:26;;;;;;;;;13.00;11.00;;;;;12.95;51.98;101665.47;5096675;27;45493;-39
2022/10/12 06:00:52;;;;;;;;;12.50;12.25;;;;;12.94;52.19;101664.56;5081086;27;45379;-40
2022/10/12 06:03:18;;;;;;;;;15.25;10.75;;;;;12.94;52.37;101661.09;5093190;27;45525;-40
2022/10/12 06:05:43;;;;;;;;;14.75;11.25;;;;;12.93;52.36;101662.00;5068887;28;45374;-40
2022/10/12 06:08:09;;;;;;;;;16.00;13.50;;;;;12.89;52.28;101664.69;5095551;27;51829;-42
2022/10/12 06:10:36;;;;;;;;;15.00;11.25;;;;;12.86;52.33;101667.38;5099331;27;45457;-41
2022/10/12 06:13:01;;;;;;;;;19.50;11.75;;;;;12.85;52.52;101664.78;5095165;27;45365;-42
2022/10/12 06:15:27;;;;;;;;;17.75;13.00;;;;;12.86;52.19;101670.00;5070477;27;45332;-41
2022/10/12 06:17:53;;;;;;;;;14.50;13.00;;;;;12.87;52.45;101674.38;5078491;27;45601;-41
2022/10/12 06:20:18;;;;;;;;;19.75;14.50;;;;;12.86;52.52;101667.38;5080304;27;46809;-42
2022/10/12 06:22:43;;;;;;;;;24.50;15.75;;;;;12.86;52.26;101667.38;5080286;28;45638;-41
2022/10/12 06:25:09;;;;;;;;;13.00;13.00;;;;;12.87;52.33;101681.38;5070151;27;57143;-40
2022/10/12 06:27:34;;;;;;;;;12.25;11.50;;;;;12.89;52.43;101677.84;5079694;28;45353;-40
2022/10/12 06:30:00;;;;;;;;;19.50;11.00;;;;;12.91;52.57;101681.28;5081304;27;45637;-41
2022/10/12 06:32:25;;;;;;;;;20.50;13.25;;;;;12.95;52.17;101683.84;5090536;27;55848;-43
2022/10/12 06:34:50;;;;;;;;;15.50;13.75;;;;;12.95;52.37;101691.75;5090637;27;57836;-40
2022/10/12 06:37:16;;;;;;;;;24.50;16.00;;;;;12.95;52.11;101689.97;5077999;28;45446;-40
2022/10/12 06:39:41;;;;;;;;;15.00;13.75;;;;;12.97;52.28;101692.56;5094035;27;61421;-41
2022/10/12 06:42:07;;;;;;;;;19.50;15.50;;;;;12.98;52.48;101696.91;5098547;27;54595;-40
2022/10/12 06:44:33;;;;;;;;;24.25;14.00;;;;;12.98;52.14;101702.16;5097045;27;45472;-40
2022/10/12 06:46:58;;;;;;;;;17.00;13.00;;;;;12.97;52.45;101693.41;5072611;28;45298;-39
2022/10/12 06:49:24;;;;;;;;;18.75;14.25;;;;;12.98;52.26;101692.53;5094046;27;46147;-39
2022/10/12 06:51:50;;;;;;;;;17.25;12.75;;;;;12.98;52.35;101697.78;5100342;27;45346;-40
2022/10/12 06:54:15;;;;;;;;;17.25;13.00;;;;;12.99;52.68;101698.66;5075750;27;45354;-39
2022/10/12 06:56:41;;;;;;;;;15.50;13.25;;;;;12.98;52.22;101697.78;5092201;27;49484;-40
2022/10/12 06:59:07;;;;;;;;;16.25;16.25;;;;;12.99;52.43;101699.50;5101726;27;46179;-39
2022/10/12 07:01:32;;;;;;;;;19.00;14.25;;;;;13.00;52.08;101700.38;5082789;27;62459;-40
2022/10/12 07:03:57;;;;;;;;;16.25;14.00;;;;;12.99;52.30;101707.38;5099326;27;45240;-40
2022/10/12 07:06:23;;;;;;;;;20.50;15.25;;;;;12.98;52.37;101710.94;5075278;27;49484;-40
2022/10/12 07:08:49;;;;;;;;;15.75;13.00;;;;;12.98;52.31;101710.94;5100556;27;69137;-40
2022/10/12 07:11:14;;;;;;;;;20.00;15.00;;;;;12.99;52.30;101710.00;5067094;27;45802;-40
2022/10/12 07:13:39;;;;;;;;;18.50;17.00;;;;;13.02;52.93;101714.34;5102324;27;45487;-40
2022/10/12 07:16:06;;;;;;;;;19.75;13.25;;;;;13.03;52.28;101710.81;5083628;27;45691;-40
2022/10/12 07:18:31;;;;;;;;;13.25;12.75;;;;;13.04;52.29;101712.56;5100200;27;46229;-40
2022/10/12 07:20:58;;;;;;;;;19.25;15.75;;;;;13.06;53.06;101708.13;5093936;27;45513;-40
2022/10/12 07:23:27;;;;;;;;;21.25;18.00;;;;;13.06;52.91;101706.34;5092684;27;45344;-40
2022/10/12 07:25:53;;;;;;;;;21.50;18.25;;;;;13.05;52.38;101704.63;5093475;27;46797;-40
2022/10/12 07:28:19;;;;;;;;;19.50;13.75;;;;;13.08;52.99;101712.47;5100849;27;45621;-40
2022/10/12 07:30:45;;;;;;;;;20.25;16.75;;;;;13.09;52.54;101722.06;5099069;27;45446;-40
2022/10/12 07:33:11;;;;;;;;;18.00;14.75;;;;;13.10;52.63;101715.91;5094574;27;45350;-40
2022/10/12 07:35:36;;;;;;;;;21.25;16.00;;;;;13.13;52.56;101725.47;5099302;27;45439;-40
2022/10/12 07:38:02;;;;;;;;;24.25;16.00;;;;;13.15;52.63;101717.56;5098890;27;46172;-40
2022/10/12 07:40:28;;;;;;;;;20.00;12.75;;;;;13.17;52.90;101729.75;5098922;27;45472;-40
2022/10/12 07:42:54;;;;;;;;;23.00;15.25;;;;;13.20;52.65;101732.34;5100605;27;45516;-39
2022/10/12 07:45:19;;;;;;;;;16.75;14.50;;;;;13.21;52.79;101730.56;5064980;27;45417;-40
2022/10/12 07:47:45;;;;;;;;;16.50;13.00;;;;;13.24;52.66;101723.50;5090657;27;46245;-40
2022/10/12 07:50:11;;;;;;;;;22.00;14.25;;;;;13.29;52.53;101734.75;5099766;27;45612;-40
2022/10/12 07:52:36;;;;;;;;;29.50;24.00;;;;;13.33;52.83;101734.72;5100492;27;45205;-40
2022/10/12 07:55:02;;;;;;;;;26.50;18.00;;;;;13.34;52.77;101736.47;5082000;27;45304;-41
2022/10/12 07:57:27;;;;;;;;;27.50;18.75;;;;;13.36;52.44;101734.66;5099441;27;45488;-41
2022/10/12 07:59:52;;;;;;;;;21.00;17.75;;;;;13.40;52.92;101738.94;5099597;27;45249;-42
2022/10/12 08:02:18;;;;;;;;;24.75;19.00;;;;;13.43;52.85;101742.38;5070274;28;62888;-41
2022/10/12 08:04:43;;;;;;;;;18.75;16.50;;;;;13.46;52.83;101752.81;5094282;27;45392;-41
2022/10/12 08:07:08;;;;;;;;;20.75;17.50;;;;;13.49;52.61;101741.34;5100353;27;49795;-41
2022/10/12 08:09:35;;;;;;;;;29.50;17.25;;;;;13.51;52.57;101742.22;5100907;27;45279;-41
2022/10/12 08:12:01;;;;;;;;;29.75;20.75;;;;;13.57;53.23;101751.72;5100934;27;45310;-41
2022/10/12 08:14:26;;;;;;;;;17.00;15.50;;;;;13.62;52.73;101755.13;5096640;27;45402;-41
2022/10/12 08:16:52;;;;;;;;;23.50;17.00;;;;;13.64;52.66;101758.56;5100511;27;45345;-41
2022/10/12 08:19:17;;;;;;;;;21.00;17.75;;;;;13.67;52.52;101755.88;5099210;27;45402;-41
2022/10/12 08:21:42;;;;;;;;;23.00;20.00;;;;;13.70;53.02;101758.41;5093965;27;45528;-41
2022/10/12 08:24:09;;;;;;;;;21.50;16.25;;;;;13.74;52.77;101760.09;5082797;27;53080;-41
2022/10/12 08:26:35;;;;;;;;;22.75;18.00;;;;;13.79;52.38;101754.69;5100495;27;46073;-40
2022/10/12 08:29:01;;;;;;;;;24.75;18.75;;;;;13.83;52.48;101751.13;5100233;27;45326;-42
2022/10/12 08:31:26;;;;;;;;;24.75;16.25;;;;;13.88;52.39;101751.84;5099704;27;45240;-41
2022/10/12 08:33:52;;;;;;;;;17.00;15.00;;;;;13.91;52.60;101751.78;5080820;27;45262;-41
2022/10/12 08:36:17;;;;;;;;;22.00;18.00;;;;;13.93;52.27;101743.84;5099921;27;45298;-41
2022/10/12 08:38:44;;;;;;;;;26.25;19.50;;;;;13.98;52.12;101752.50;5100384;27;45287;-41
2022/10/12 08:41:44;;;;;;;;;23.50;18.50;;;;;14.01;52.53;101753.28;5082798;27;45247;-41
2022/10/12 08:44:37;;;;;;;;;20.75;17.75;;;;;14.08;52.27;101755.75;5087549;27;45488;-41
2022/10/12 08:47:29;;;;;;;;;27.25;19.25;;;;;14.12;52.51;101754.78;5100623;27;45366;-41
2022/10/12 08:49:54;;;;;;;;;23.00;18.75;;;;;14.17;52.42;101756.38;5071619;27;45291;-41
2022/10/12 08:52:29;;;;;;;;;21.75;18.50;;;;;14.22;52.01;101754.50;5082569;27;45341;-41
2022/10/12 08:55:06;;;;;;;;;26.25;21.00;;;;;14.29;52.04;101762.22;5067211;27;45475;-41
2022/10/12 08:57:31;;;;;;;;;21.00;20.50;;;;;14.32;52.22;101756.88;5081971;27;45939;-41
2022/10/12 08:59:58;;;;;;;;;31.50;21.75;;;;;14.38;52.13;101765.50;5098833;27;56888;-42
2022/10/12 09:02:53;;;;;;;;;26.00;24.00;;;;;14.44;51.83;101764.47;5094076;27;67017;-42
2022/10/12 09:05:28;;;;;;;;;26.50;22.00;;;;;14.50;52.07;101761.69;5080315;27;45521;-40
2022/10/12 09:07:59;;;;;;;;;31.75;24.00;;;;;14.56;52.13;101766.78;5081083;27;45609;-40
2022/10/12 09:10:46;;;;;;;;;29.50;22.00;;;;;14.63;51.74;101753.47;5085313;27;45786;-40
2022/10/12 09:13:30;;;;;;;;;29.25;24.50;;;;;14.69;51.63;101750.66;5099247;27;45429;-43
2022/10/12 09:16:02;;;;;;;;;29.75;22.75;;;;;14.75;51.66;101747.84;5100390;27;45542;-41
2022/10/12 09:18:40;;;;;;;;;34.50;26.25;;;;;14.83;51.47;101756.41;5085048;27;45408;-41
2022/10/12 09:21:10;;;;;;;;;34.00;23.50;;;;;14.91;51.56;101759.69;5099953;27;45803;-40
2022/10/12 09:23:40;;;;;;;;;31.50;22.75;;;;;14.98;51.50;101749.84;5081891;27;45445;-41
2022/10/12 09:26:15;;;;;;;;;30.75;23.50;;;;;15.05;51.74;101751.41;5063432;27;45463;-40
2022/10/12 09:28:52;;;;;;;;;21.00;20.75;;;;;15.11;51.38;101751.19;5091126;27;46065;-41
2022/10/12 09:31:39;;;;;;;;;28.50;25.25;;;;;15.19;51.49;101749.22;5067720;27;45798;-41
2022/10/12 09:34:07;;;;;;;;;30.75;25.25;;;;;15.28;51.23;101744.53;5099823;27;45399;-41
2022/10/12 09:36:34;;;;;;;;;38.50;28.25;;;;;15.32;51.64;101736.50;5098671;27;45430;-41
2022/10/12 09:39:04;;;;;;;;;37.50;31.00;;;;;15.41;51.17;101731.88;5078421;27;47952;-41
2022/10/12 09:41:36;;;;;;;;;32.75;26.00;;;;;15.49;50.93;101737.75;5081071;27;47581;-42
2022/10/12 09:44:03;;;;;;;;;29.00;26.25;;;;;15.55;51.08;101733.16;5071282;27;45426;-41
2022/10/12 09:46:50;;;;;;;;;28.25;25.00;;;;;15.63;51.35;101727.59;5100027;27;45371;-42
2022/10/12 09:49:15;;;;;;;;;41.25;33.25;;;;;15.71;50.90;101724.75;5079679;27;45497;-41
2022/10/12 09:51:41;;;;;;;;;34.25;26.75;;;;;15.80;51.02;101724.47;5081084;27;45213;-41
2022/10/12 09:54:16;;;;;;;;;36.00;30.25;;;;;15.87;51.16;101727.78;5081329;27;45378;-42
2022/10/12 09:56:48;;;;;;;;;37.00;28.25;;;;;15.93;50.87;101720.50;5099403;27;45289;-42
2022/10/12 09:59:25;;;;;;;;;35.50;31.25;;;;;15.99;51.10;101719.44;5095728;27;46292;-42
2022/10/12 10:02:09;;;;;;;;;31.25;28.00;;;;;16.05;51.05;101721.00;5077407;27;45817;-42
2022/10/12 10:04:35;;;;;;;;;38.00;31.50;;;;;16.11;50.63;101720.78;5099761;27;45311;-41
2022/10/12 10:07:30;;;;;;;;;40.75;28.00;;;;;16.18;50.72;101716.16;5080982;27;45375;-42
2022/10/12 10:10:14;;;;;;;;;38.50;31.25;;;;;16.26;50.71;101711.47;5096219;27;46350;-41
2022/10/12 10:12:48;;;;;;;;;38.50;30.75;;;;;16.32;50.97;101713.91;5101189;27;45480;-42
2022/10/12 10:15:23;;;;;;;;;36.25;28.25;;;;;16.38;50.96;101713.69;5083233;27;45373;-42
2022/10/12 10:17:52;;;;;;;;;55.25;44.00;;;;;16.44;50.91;101707.31;5102410;27;45403;-42
2022/10/12 10:20:41;;;;;;;;;49.50;38.75;;;;;16.49;50.96;101706.22;5100111;27;46361;-43
2022/10/12 10:23:32;;;;;;;;;58.50;45.25;;;;;16.52;50.88;101700.00;5101569;27;45871;-43
2022/10/12 10:25:58;;;;;;;;;44.00;37.00;;;;;16.59;51.08;101704.13;5085380;27;45265;-41
2022/10/12 10:28:28;;;;;;;;;46.25;35.50;;;;;16.64;51.16;101707.47;5080812;28;45264;-43
2022/10/12 10:31:05;;;;;;;;;45.25;34.50;;;;;16.70;51.10;101704.59;5088409;27;45515;-42
2022/10/12 10:33:32;;;;;;;;;38.25;30.50;;;;;16.79;50.91;101707.81;5102321;27;45898;-42
2022/10/12 10:35:59;;;;;;;;;36.75;26.75;;;;;16.86;50.58;101704.06;5102574;27;45217;-41
2022/10/12 10:38:25;;;;;;;;;37.50;32.50;;;;;16.94;50.70;101709.88;5102182;27;45314;-42
2022/10/12 10:40:52;;;;;;;;;38.00;30.50;;;;;17.03;50.67;101704.28;5102311;27;46057;-42
2022/10/12 10:43:26;;;;;;;;;31.50;27.25;;;;;17.12;50.56;101705.66;5083725;27;45417;-42
2022/10/12 10:45:54;;;;;;;;;29.50;26.50;;;;;17.20;50.60;101697.47;5097423;27;45495;-41
2022/10/12 10:48:29;;;;;;;;;20.25;17.25;;;;;17.31;50.58;101697.03;5090325;27;45974;-42
2022/10/12 10:51:03;;;;;;;;;31.00;22.75;;;;;17.39;50.90;101698.44;5101699;27;45494;-42
2022/10/12 10:53:32;;;;;;;;;30.50;24.50;;;;;17.47;50.84;101692.84;5102295;27;46184;-41
2022/10/12 10:55:57;;;;;;;;;22.75;17.75;;;;;17.54;50.77;101696.09;5082155;27;45408;-41
2022/10/12 10:58:28;;;;;;;;;25.33;21.67;;;;;17.58;50.94;101690.63;5102174;27;45428;-40
2022/10/12 11:00:58;;;;;;;;;21.25;19.50;;;;;17.62;50.81;101692.22;5101003;27;46296;-45
2022/10/12 11:04:02;;;;;;;;;26.50;20.75;;;;;17.69;50.84;101697.25;5100983;27;45452;-40
2022/10/12 11:06:36;;;;;;;;;24.00;17.25;;;;;17.73;50.83;101699.72;4997872;28;45311;-44
2022/10/12 11:09:10;;;;;;;;;22.50;15.25;;;;;17.79;50.81;101702.09;5098144;27;45543;-40
2022/10/12 11:11:37;;;;;;;;;15.25;13.50;;;;;17.83;50.61;101700.22;5101861;27;46265;-43
2022/10/12 11:14:13;;;;;;;;;16.50;14.25;;;;;17.89;50.59;101699.13;5083385;27;45322;-43
2022/10/12 11:16:43;;;;;;;;;29.00;25.25;;;;;17.97;50.46;101700.50;5101984;27;45284;-42
2022/10/12 11:19:21;;;;;;;;;25.25;22.75;;;;;18.07;50.34;101687.72;5101084;27;45455;-42
2022/10/12 11:21:50;;;;;;;;;18.75;13.25;;;;;18.16;50.31;101686.47;5089382;27;46180;-41
2022/10/12 11:24:34;;;;;;;;;19.25;14.50;;;;;18.25;50.10;101680.75;5101664;27;45431;-41